createdAt,value
2018-03-28T00:00:54.070Z,101087.49
2018-03-28T00:03:22.423Z,101091.63
2018-03-28T00:05:50.064Z,101085.31
2018-03-28T00:08:18.221Z,101088.11
2018-03-28T00:10:46.631Z,101085.23
2018-03-28T00:13:14.213Z,101088.37
2018-03-28T00:15:42.081Z,101081.63
2018-03-28T00:18:10.203Z,101087.92
2018-03-28T00:20:38.481Z,101090.28
2018-03-28T00:23:06.808Z,101092.61
2018-03-28T00:25:34.366Z,101088.02
2018-03-28T00:28:01.906Z,101090.89
2018-03-28T00:30:29.565Z,101083.19
2018-03-28T00:32:57.193Z,101083.68
2018-03-28T00:35:24.813Z,101088.47
2018-03-28T00:37:52.552Z,101087.66
2018-03-28T00:40:20.126Z,101086.09
2018-03-28T00:42:47.671Z,101086.70
2018-03-28T00:45:15.245Z,101084.20
2018-03-28T00:47:43.525Z,101084.43
2018-03-28T00:50:12.273Z,101084.92
2018-03-28T00:52:39.823Z,101086.38
2018-03-28T00:55:07.366Z,101076.61
2018-03-28T00:57:35.984Z,101084.03
2018-03-28T01:00:04.345Z,101073.08
2018-03-28T01:02:31.924Z,101076.98
2018-03-28T01:04:59.536Z,101075.71
2018-03-28T01:07:28.553Z,101075.29
2018-03-28T01:09:56.703Z,101073.64
2018-03-28T01:12:24.306Z,101073.75
2018-03-28T01:14:51.867Z,101068.27
2018-03-28T01:17:19.908Z,101066.31
2018-03-28T01:19:48.272Z,101068.95
2018-03-28T01:22:16.469Z,101070.22
2018-03-28T01:24:44.024Z,101072.61
2018-03-28T01:27:11.813Z,101071.42
2018-03-28T01:29:39.571Z,101062.88
2018-03-28T01:32:07.108Z,101067.34
2018-03-28T01:34:34.644Z,101069.02
2018-03-28T01:37:02.265Z,101064.41
2018-03-28T01:39:29.813Z,101066.77
2018-03-28T01:41:57.357Z,101065.08
2018-03-28T01:44:24.943Z,101057.70
2018-03-28T01:46:52.704Z,101059.04
2018-03-28T01:49:21.137Z,101057.73
2018-03-28T01:51:49.596Z,101056.09
2018-03-28T01:54:17.156Z,101058.41
2018-03-28T01:56:44.682Z,101061.58
2018-03-28T01:59:13.278Z,101056.66
2018-03-28T02:01:41.937Z,101055.92
2018-03-28T02:04:09.476Z,101053.01
2018-03-28T02:06:37.353Z,101054.03
2018-03-28T02:09:06.474Z,101051.53
2018-03-28T02:11:34.028Z,101056.98
2018-03-28T02:14:01.558Z,101051.53
2018-03-28T02:16:29.141Z,101055.67
2018-03-28T02:18:57.265Z,101051.95
2018-03-28T02:21:25.481Z,101049.14
2018-03-28T02:23:53.204Z,101051.06
2018-03-28T02:26:20.748Z,101051.23
2018-03-28T02:28:48.304Z,101046.43
2018-03-28T02:31:15.845Z,101049.94
2018-03-28T02:33:44.282Z,101051.31
2018-03-28T02:36:12.660Z,101047.20
2018-03-28T02:38:40.216Z,101043.79
2018-03-28T02:41:07.779Z,101051.30
2018-03-28T02:43:35.348Z,101047.57
2018-03-28T02:46:03.026Z,101049.78
2018-03-28T02:48:30.570Z,101045.98
2018-03-28T02:50:58.684Z,101044.89
2018-03-28T02:53:26.238Z,101045.38
2018-03-28T02:55:53.782Z,101050.99
2018-03-28T02:58:22.781Z,101047.09
2018-03-28T03:00:50.898Z,101051.66
2018-03-28T03:03:19.171Z,101060.45
2018-03-28T03:05:46.713Z,101055.39
2018-03-28T03:08:15.097Z,101054.27
2018-03-28T03:10:43.388Z,101054.75
2018-03-28T03:13:10.928Z,101057.03
2018-03-28T03:15:38.493Z,101058.39
2018-03-28T03:18:07.161Z,101059.33
2018-03-28T03:20:35.300Z,101058.10
2018-03-28T03:23:02.879Z,101057.81
2018-03-28T03:25:30.403Z,101063.56
2018-03-28T03:27:57.968Z,101060.61
2018-03-28T03:30:25.507Z,101062.81
2018-03-28T03:32:54.068Z,101065.86
2018-03-28T03:35:21.634Z,101056.06
2018-03-28T03:37:49.232Z,101065.60
2018-03-28T03:40:16.828Z,101063.43
2018-03-28T03:42:44.381Z,101058.66
2018-03-28T03:45:12.081Z,101057.91
2018-03-28T03:47:39.663Z,101055.97
2018-03-28T03:50:08.291Z,101058.98
2018-03-28T03:52:35.852Z,101053.89
2018-03-28T03:55:03.394Z,101052.59
2018-03-28T03:57:31.588Z,101056.06
2018-03-28T03:59:59.726Z,101052.72
2018-03-28T04:02:27.277Z,101057.69
2018-03-28T04:04:55.483Z,101056.09
2018-03-28T04:07:23.565Z,101064.82
2018-03-28T04:09:51.784Z,101067.38
2018-03-28T04:12:19.333Z,101059.27
2018-03-28T04:14:46.959Z,101062.48
2018-03-28T04:17:15.338Z,101064.23
2018-03-28T04:19:44.203Z,101064.20
2018-03-28T04:22:12.597Z,101063.78
2018-03-28T04:24:40.146Z,101070.17
2018-03-28T04:27:07.681Z,101062.39
2018-03-28T04:29:35.256Z,101059.27
2018-03-28T04:32:02.825Z,101067.51
2018-03-28T04:34:30.407Z,101066.34
2018-03-28T04:36:57.998Z,101066.05
2018-03-28T04:39:25.680Z,101067.53
2018-03-28T04:41:53.545Z,101058.91
2018-03-28T04:44:21.129Z,101062.05
2018-03-28T04:46:48.766Z,101063.34
2018-03-28T04:49:16.376Z,101063.83
2018-03-28T04:51:44.930Z,101066.39
2018-03-28T04:54:12.934Z,101062.38
2018-03-28T04:56:40.473Z,101065.75
2018-03-28T04:59:08.778Z,101069.91
2018-03-28T05:01:36.925Z,101067.09
2018-03-28T05:04:04.495Z,101059.41
2018-03-28T05:06:33.017Z,101059.08
2018-03-28T05:09:01.212Z,101058.30
2018-03-28T05:11:28.844Z,101054.53
2018-03-28T05:13:56.400Z,101054.34
2018-03-28T05:16:24.165Z,101057.68
2018-03-28T05:18:52.512Z,101054.08
2018-03-28T05:21:20.045Z,101060.02
2018-03-28T05:23:47.584Z,101056.77
2018-03-28T05:26:15.148Z,101061.63
2018-03-28T05:28:42.704Z,101050.09
2018-03-28T05:31:10.493Z,101050.66
2018-03-28T05:33:38.086Z,101051.33
2018-03-28T05:36:05.642Z,101060.05
2018-03-28T05:38:33.208Z,101061.64
2018-03-28T05:41:00.780Z,101065.80
2018-03-28T05:43:28.368Z,101061.72
2018-03-28T05:45:55.902Z,101061.83
2018-03-28T05:48:23.601Z,101069.66
2018-03-28T05:50:51.841Z,101064.41
2018-03-28T05:53:19.413Z,101066.30
2018-03-28T05:55:47.627Z,101073.72
2018-03-28T05:58:15.584Z,101075.62
2018-03-28T06:00:43.829Z,101077.97
2018-03-28T06:03:11.593Z,101073.77
2018-03-28T06:05:39.773Z,101077.77
2018-03-28T06:08:08.140Z,101076.30
2018-03-28T06:10:37.178Z,101072.97
2018-03-28T06:13:04.740Z,101074.60
2018-03-28T06:15:32.338Z,101065.96
2018-03-28T06:18:01.366Z,101076.26
2018-03-28T06:20:29.706Z,101072.51
2018-03-28T06:22:57.275Z,101071.40
2018-03-28T06:25:24.849Z,101073.52
2018-03-28T06:27:52.540Z,101073.66
2018-03-28T06:30:20.148Z,101079.56
2018-03-28T06:32:47.711Z,101075.95
2018-03-28T06:35:15.312Z,101071.03
2018-03-28T06:37:43.178Z,101069.17
2018-03-28T06:40:12.629Z,101073.67
2018-03-28T06:42:40.318Z,101068.89
2018-03-28T06:45:07.984Z,101070.48
2018-03-28T06:47:35.659Z,101070.28
2018-03-28T06:50:04.014Z,101059.98
2018-03-28T06:52:32.416Z,101052.84
2018-03-28T06:55:00.105Z,101060.41
2018-03-28T06:57:28.248Z,101055.83
2018-03-28T06:59:56.677Z,101053.80
2018-03-28T07:02:24.453Z,101058.43
2018-03-28T07:04:52.693Z,101051.15
2018-03-28T07:07:20.972Z,101057.91
2018-03-28T07:09:49.299Z,101049.80
2018-03-28T07:12:17.343Z,101056.36
2018-03-28T07:14:44.975Z,101056.27
2018-03-28T07:17:13.885Z,101058.56
2018-03-28T07:19:42.825Z,101053.89
2018-03-28T07:22:10.621Z,101045.86
2018-03-28T07:24:38.386Z,101045.51
2018-03-28T07:27:06.109Z,101041.70
2018-03-28T07:29:33.914Z,101042.14
2018-03-28T07:32:01.569Z,101042.95
2018-03-28T07:34:29.313Z,101040.80
2018-03-28T07:36:56.958Z,101033.36
2018-03-28T07:39:24.793Z,101043.38
2018-03-28T07:41:54.250Z,101040.37
2018-03-28T07:44:22.583Z,101031.51
2018-03-28T07:46:50.231Z,101029.30
2018-03-28T07:49:17.952Z,101027.42
2018-03-28T07:51:46.412Z,101022.66
2018-03-28T07:54:14.287Z,101018.72
2018-03-28T07:56:42.136Z,101016.94
2018-03-28T07:59:14.256Z,101013.00
2018-03-28T08:01:42.917Z,101011.25
2018-03-28T08:04:10.578Z,101011.42
2018-03-28T08:06:38.885Z,101008.23
2018-03-28T08:09:07.031Z,101018.55
2018-03-28T08:11:36.055Z,101015.58
2018-03-28T08:14:03.658Z,101010.58
2018-03-28T08:16:31.322Z,101011.84
2018-03-28T08:18:59.847Z,101013.68
2018-03-28T08:21:27.483Z,101017.36
2018-03-28T08:23:55.075Z,101018.08
2018-03-28T08:26:22.781Z,101026.14
2018-03-28T08:28:50.504Z,101026.31
2018-03-28T08:31:18.473Z,101020.59
2018-03-28T08:33:46.166Z,101018.42
2018-03-28T08:36:14.236Z,101020.17
2018-03-28T08:38:41.813Z,101015.58
2018-03-28T08:41:09.437Z,101013.68
2018-03-28T08:43:37.128Z,101015.03
2018-03-28T08:46:04.684Z,101011.42
2018-03-28T08:48:32.850Z,101009.64
2018-03-28T08:51:01.828Z,101004.96
2018-03-28T08:53:29.491Z,101005.63
2018-03-28T08:55:57.027Z,101003.15
2018-03-28T08:58:26.189Z,100996.20
2018-03-28T09:00:54.478Z,101005.64
2018-03-28T09:03:22.559Z,101002.09
2018-03-28T09:05:50.096Z,101001.89
2018-03-28T09:08:18.601Z,101008.44
2018-03-28T09:10:46.473Z,101005.03
2018-03-28T09:13:14.901Z,101005.52
2018-03-28T09:15:43.954Z,100998.95
2018-03-28T09:18:13.528Z,100996.02
2018-03-28T09:20:41.486Z,100988.55
2018-03-28T09:23:09.076Z,101002.03
2018-03-28T09:25:36.654Z,101000.20
2018-03-28T09:28:04.208Z,100993.10
2018-03-28T09:30:31.766Z,100999.09
2018-03-28T09:32:59.333Z,100991.31
2018-03-28T09:35:27.056Z,100993.88
2018-03-28T09:37:54.686Z,100995.37
2018-03-28T09:43:52.652Z,100995.77
2018-03-28T09:46:20.976Z,100996.06
2018-03-28T09:48:48.542Z,100993.14
2018-03-28T09:51:16.620Z,100988.64
2018-03-28T09:53:44.170Z,100998.02
2018-03-28T09:56:12.286Z,100991.41
2018-03-28T09:58:40.339Z,100994.46
2018-03-28T10:01:09.212Z,100991.69
2018-03-28T10:03:42.492Z,100981.11
2018-03-28T10:06:10.589Z,100978.55
2018-03-28T10:08:39.010Z,100970.55
2018-03-28T10:11:06.579Z,100970.45
2018-03-28T10:13:34.166Z,100962.51
2018-03-28T10:19:00.695Z,100951.61
2018-03-28T10:21:28.247Z,100959.45
2018-03-28T10:23:55.778Z,100949.75
2018-03-28T10:26:23.502Z,100943.95
2018-03-28T10:28:51.077Z,100941.09
2018-03-28T10:31:18.655Z,100944.86
2018-03-28T10:33:47.085Z,100944.72
2018-03-28T10:36:14.698Z,100940.59
2018-03-28T10:38:43.103Z,100930.22
2018-03-28T10:41:10.718Z,100931.96
2018-03-28T10:43:39.027Z,100937.53
2018-03-28T10:46:06.679Z,100939.44
2018-03-28T10:48:34.258Z,100934.19
2018-03-28T10:51:02.304Z,100933.88
2018-03-28T10:53:29.890Z,100925.73
2018-03-28T10:55:57.428Z,100931.30
2018-03-28T10:58:25.744Z,100925.83
2018-03-28T11:00:54.957Z,100918.97
2018-03-28T11:03:22.723Z,100922.86
2018-03-28T11:05:50.264Z,100912.69
2018-03-28T11:08:18.566Z,100925.02
2018-03-28T11:10:46.650Z,100910.05
2018-03-28T11:13:14.247Z,100903.44
2018-03-28T11:15:42.040Z,100909.02
2018-03-28T11:18:09.989Z,100900.36
2018-03-28T11:20:37.546Z,100902.73
2018-03-28T11:23:05.157Z,100903.30
2018-03-28T11:25:32.746Z,100887.84
2018-03-28T11:28:00.281Z,100886.93
2018-03-28T11:30:27.876Z,100888.41
2018-03-28T11:32:55.452Z,100882.14
2018-03-28T11:35:23.109Z,100878.36
2018-03-28T11:37:50.646Z,100877.83
2018-03-28T11:40:18.226Z,100870.42
2018-03-28T11:42:46.293Z,100874.05
2018-03-28T11:45:14.385Z,100871.46
2018-03-28T11:47:42.479Z,100866.59
2018-03-28T11:50:10.805Z,100874.92
2018-03-28T11:52:38.333Z,100870.03
2018-03-28T11:55:05.889Z,100858.23
2018-03-28T11:57:34.218Z,100863.96
2018-03-28T12:00:02.382Z,100858.72
2018-03-28T12:02:29.917Z,100857.45
2018-03-28T12:04:57.467Z,100861.59
2018-03-28T12:07:26.310Z,100863.27
2018-03-28T12:09:54.453Z,100856.44
2018-03-28T12:12:22.013Z,100849.27
2018-03-28T12:14:49.536Z,100849.69
2018-03-28T12:17:17.941Z,100848.52
2018-03-28T12:19:45.902Z,100843.41
2018-03-28T12:22:13.780Z,100851.33
2018-03-28T12:24:43.105Z,100839.03
2018-03-28T12:27:10.697Z,100841.97
2018-03-28T12:29:38.244Z,100841.28
2018-03-28T12:32:05.785Z,100836.55
2018-03-28T12:34:33.460Z,100832.70
2018-03-28T12:37:01.000Z,100822.21
2018-03-28T12:39:29.115Z,100819.38
2018-03-28T12:41:56.661Z,100814.82
2018-03-28T12:44:24.245Z,100820.09
2018-03-28T12:46:51.808Z,100817.63
2018-03-28T12:49:19.345Z,100815.50
2018-03-28T12:51:48.114Z,100817.69
2018-03-28T12:54:15.649Z,100810.23
2018-03-28T12:56:43.265Z,100814.28
2018-03-28T12:59:12.034Z,100818.30
2018-03-28T13:01:40.227Z,100813.31
2018-03-28T13:04:07.777Z,100800.74
2018-03-28T13:06:36.235Z,100800.25
2018-03-28T13:09:04.613Z,100798.70
2018-03-28T13:11:32.156Z,100799.06
2018-03-28T13:13:59.713Z,100792.51
2018-03-28T13:16:27.297Z,100785.00
2018-03-28T13:18:55.546Z,100775.53
2018-03-28T13:21:23.338Z,100782.66
2018-03-28T13:23:51.588Z,100779.18
2018-03-28T13:26:19.121Z,100780.58
2018-03-28T13:28:46.659Z,100779.94
2018-03-28T13:31:14.290Z,100774.22
2018-03-28T13:33:42.824Z,100770.96
2018-03-28T13:36:11.196Z,100777.36
2018-03-28T13:38:38.740Z,100773.13
2018-03-28T13:41:06.293Z,100767.25
2018-03-28T13:43:33.865Z,100761.83
2018-03-28T13:46:01.425Z,100764.06
2018-03-28T13:48:28.964Z,100749.30
2018-03-28T13:50:57.177Z,100756.45
2018-03-28T13:53:24.850Z,100754.14
2018-03-28T13:55:52.580Z,100750.32
2018-03-28T13:58:20.723Z,100748.44
2018-03-28T14:00:48.969Z,100740.71
2018-03-28T14:03:17.173Z,100742.67
2018-03-28T14:05:44.719Z,100731.96
2018-03-28T14:08:13.384Z,100731.02
2018-03-28T14:10:42.010Z,100726.78
2018-03-28T14:13:09.687Z,100728.90
2018-03-28T14:15:37.222Z,100720.11
2018-03-28T14:18:05.452Z,100710.94
2018-03-28T14:20:32.986Z,100711.31
2018-03-28T14:23:01.156Z,100699.80
2018-03-28T14:25:28.692Z,100705.03
2018-03-28T14:27:56.264Z,100704.45
2018-03-28T14:30:23.852Z,100693.52
2018-03-28T14:32:51.383Z,100694.52
2018-03-28T14:35:19.628Z,100700.77
2018-03-28T14:37:47.166Z,100693.00
2018-03-28T14:40:14.761Z,100684.48
2018-03-28T14:42:54.586Z,100686.00
2018-03-28T14:45:11.213Z,100683.64
2018-03-28T14:47:38.801Z,100681.48
2018-03-28T14:50:06.850Z,100680.91
2018-03-28T14:52:34.384Z,100679.63
2018-03-28T14:55:01.944Z,100685.12
2018-03-28T14:57:30.232Z,100679.59
2018-03-28T14:59:58.119Z,100676.94
2018-03-28T15:02:25.662Z,100677.42
2018-03-28T15:04:53.260Z,100673.58
2018-03-28T15:07:21.624Z,100674.53
2018-03-28T15:09:49.720Z,100676.50
2018-03-28T15:12:17.276Z,100664.63
2018-03-28T15:14:44.802Z,100668.75
2018-03-28T15:17:13.106Z,100665.76
2018-03-28T15:19:41.161Z,100655.77
2018-03-28T15:22:08.752Z,100661.14
2018-03-28T15:24:37.976Z,100661.33
2018-03-28T15:27:05.520Z,100657.42
2018-03-28T15:29:33.049Z,100650.43
2018-03-28T15:32:01.367Z,100649.48
2018-03-28T15:34:28.909Z,100651.12
2018-03-28T15:36:56.451Z,100655.05
2018-03-28T15:39:24.240Z,100653.54
2018-03-28T15:41:51.804Z,100655.02
2018-03-28T15:44:19.333Z,100647.91
2018-03-28T15:46:46.930Z,100651.38
2018-03-28T15:49:15.155Z,100653.20
2018-03-28T15:51:43.775Z,100642.94
2018-03-28T15:54:13.058Z,100652.48
2018-03-28T15:56:40.588Z,100641.92
2018-03-28T15:59:08.565Z,100648.42
2018-03-28T16:01:36.660Z,100645.93
2018-03-28T16:04:04.302Z,100641.23
2018-03-28T16:06:32.450Z,100638.46
2018-03-28T16:09:01.100Z,100643.61
2018-03-28T16:11:28.675Z,100640.31
2018-03-28T16:13:56.221Z,100634.33
2018-03-28T16:16:23.808Z,100636.78
2018-03-28T16:18:51.770Z,100627.94
2018-03-28T16:21:19.306Z,100639.32
2018-03-28T16:23:47.360Z,100632.48
2018-03-28T16:26:14.961Z,100635.10
2018-03-28T16:28:44.015Z,100633.06
2018-03-28T16:31:12.822Z,100633.83
2018-03-28T16:33:40.352Z,100637.09
2018-03-28T16:36:07.896Z,100637.27
2018-03-28T16:38:35.529Z,100640.02
2018-03-28T16:41:03.097Z,100631.81
2018-03-28T16:43:30.633Z,100631.34
2018-03-28T16:45:58.218Z,100639.31
2018-03-28T16:48:26.661Z,100647.84
2018-03-28T16:50:54.993Z,100639.14
2018-03-28T16:53:22.662Z,100645.66
2018-03-28T16:55:50.209Z,100640.02
2018-03-28T16:58:18.486Z,100643.03
2018-03-28T17:00:47.042Z,100639.53
2018-03-28T17:03:14.578Z,100639.38
2018-03-28T17:05:42.444Z,100640.38
2018-03-28T17:08:10.629Z,100643.17
2018-03-28T17:10:39.053Z,100635.75
2018-03-28T17:13:06.725Z,100648.70
2018-03-28T17:15:34.349Z,100651.23
2018-03-28T17:18:02.537Z,100650.27
2018-03-28T17:20:30.082Z,100649.53
2018-03-28T17:22:58.324Z,100648.75
2018-03-28T17:25:25.873Z,100653.13
2018-03-28T17:27:54.180Z,100651.67
2018-03-28T17:30:22.389Z,100653.09
2018-03-28T17:32:50.553Z,100656.94
2018-03-28T17:35:18.082Z,100659.67
2018-03-28T17:37:45.706Z,100660.02
2018-03-28T17:40:14.567Z,100666.70
2018-03-28T17:42:43.357Z,100667.95
2018-03-28T17:45:10.966Z,100672.58
2018-03-28T17:47:38.591Z,100666.12
2018-03-28T17:50:07.065Z,100670.20
2018-03-28T17:52:34.622Z,100669.29
2018-03-28T17:55:02.410Z,100670.17
2018-03-28T17:57:30.631Z,100676.16
2018-03-28T17:59:58.880Z,100679.12
2018-03-28T18:02:26.468Z,100682.64
2018-03-28T18:04:54.238Z,100682.77
2018-03-28T18:07:22.755Z,100678.27
2018-03-28T18:09:51.161Z,100681.16
2018-03-28T18:12:18.874Z,100676.34
2018-03-28T18:14:46.437Z,100683.41
2018-03-28T18:17:14.797Z,100684.45
2018-03-28T18:19:43.254Z,100682.08
2018-03-28T18:22:11.804Z,100689.58
2018-03-28T18:24:40.162Z,100680.48
2018-03-28T18:27:08.273Z,100678.71
2018-03-28T18:29:36.334Z,100681.45
2018-03-28T18:32:03.944Z,100684.45
2018-03-28T18:34:31.548Z,100681.43
2018-03-28T18:36:59.134Z,100687.52
2018-03-28T18:39:26.708Z,100685.19
2018-03-28T18:41:54.645Z,100689.16
2018-03-28T18:44:22.504Z,100690.57
2018-03-28T18:46:50.185Z,100704.44
2018-03-28T18:49:17.775Z,100696.45
2018-03-28T18:51:45.970Z,100699.34
2018-03-28T18:54:13.919Z,100700.48
2018-03-28T18:56:41.538Z,100698.22
2018-03-28T18:59:09.813Z,100691.75
2018-03-28T19:01:38.268Z,100693.43
2018-03-28T19:04:06.283Z,100692.42
2018-03-28T19:06:34.716Z,100694.60
2018-03-28T19:09:03.040Z,100698.48
2018-03-28T19:11:30.702Z,100689.74
2018-03-28T19:13:58.349Z,100690.87
2018-03-28T19:16:25.942Z,100686.04
2018-03-28T19:18:54.284Z,100686.02
2018-03-28T19:21:22.591Z,100680.28
2018-03-28T19:23:50.724Z,100680.10
2018-03-28T19:26:18.339Z,100681.17
2018-03-28T19:28:46.008Z,100689.27
2018-03-28T19:31:14.498Z,100684.78
2018-03-28T19:33:42.996Z,100680.06
2018-03-28T19:36:10.617Z,100684.72
2018-03-28T19:38:38.238Z,100683.16
2018-03-28T19:41:05.953Z,100685.75
2018-03-28T19:43:33.599Z,100685.20
2018-03-28T19:46:01.238Z,100690.63
2018-03-28T19:48:28.813Z,100688.81
2018-03-28T19:50:57.361Z,100691.19
2018-03-28T19:53:24.938Z,100696.50
2018-03-28T19:55:52.531Z,100690.11
2018-03-28T19:58:20.716Z,100695.89
2018-03-28T20:00:48.862Z,100690.87
2018-03-28T20:03:16.569Z,100684.52
2018-03-28T20:05:44.253Z,100686.12
2018-03-28T20:08:13.020Z,100690.70
2018-03-28T20:10:41.258Z,100683.48
2018-03-28T20:13:09.225Z,100681.81
2018-03-28T20:15:36.850Z,100685.44
2018-03-28T20:18:05.363Z,100684.13
2018-03-28T20:20:33.575Z,100682.61
2018-03-28T20:23:02.050Z,100677.64
2018-03-28T20:25:29.589Z,100676.20
2018-03-28T20:27:57.270Z,100673.64
2018-03-28T20:30:25.715Z,100677.74
2018-03-28T20:32:53.557Z,100679.05
2018-03-28T20:35:21.369Z,100672.39
2018-03-28T20:37:48.963Z,100677.45
2018-03-28T20:40:16.599Z,100680.66
2018-03-28T20:42:44.279Z,100680.41
2018-03-28T20:45:13.387Z,100678.80
2018-03-28T20:47:41.001Z,100684.55
2018-03-28T20:50:09.112Z,100685.31
2018-03-28T20:52:36.731Z,100688.46
2018-03-28T20:55:04.291Z,100683.92
2018-03-28T20:57:32.845Z,100684.87
2018-03-28T21:00:01.246Z,100684.56
2018-03-28T21:02:29.493Z,100687.02
2018-03-28T21:04:57.095Z,100684.04
2018-03-28T21:07:25.257Z,100683.67
2018-03-28T21:09:53.550Z,100685.09
2018-03-28T21:12:21.204Z,100680.14
2018-03-28T21:14:48.816Z,100683.40
2018-03-28T21:17:17.488Z,100680.09
2018-03-28T21:19:45.681Z,100676.07
2018-03-28T21:22:13.938Z,100676.77
2018-03-28T21:24:42.678Z,100671.80
2018-03-28T21:27:10.365Z,100676.04
2018-03-28T21:29:38.501Z,100668.41
2018-03-28T21:32:06.101Z,100672.08
2018-03-28T21:34:34.213Z,100675.48
2018-03-28T21:37:01.957Z,100673.61
2018-03-28T21:39:29.557Z,100670.38
2018-03-28T21:41:57.198Z,100673.69
2018-03-28T21:44:25.069Z,100672.42
2018-03-28T21:46:52.657Z,100677.83
2018-03-28T21:49:20.451Z,100676.01
2018-03-28T21:51:48.742Z,100672.33
2018-03-28T21:54:16.303Z,100679.52
2018-03-28T21:56:44.275Z,100675.80
2018-03-28T21:59:13.551Z,100679.11
2018-03-28T22:01:42.618Z,100676.27
2018-03-28T22:04:10.291Z,100680.72
2018-03-28T22:06:38.601Z,100672.97
2018-03-28T22:09:06.803Z,100681.30
2018-03-28T22:11:34.402Z,100683.08
2018-03-28T22:14:02.067Z,100682.77
2018-03-28T22:16:30.497Z,100684.55
2018-03-28T22:18:58.902Z,100677.33
2018-03-28T22:21:27.118Z,100676.12
2018-03-28T22:23:55.424Z,100680.21
2018-03-28T22:26:24.104Z,100674.64
2018-03-28T22:28:51.687Z,100675.59
2018-03-28T22:31:20.531Z,100676.11
2018-03-28T22:33:48.129Z,100673.12
2018-03-28T22:36:15.799Z,100673.70
2018-03-28T22:38:43.686Z,100675.13
2018-03-28T22:41:11.912Z,100673.97
2018-03-28T22:43:39.625Z,100670.67
2018-03-28T22:46:07.394Z,100669.92
2018-03-28T22:48:35.404Z,100669.61
2018-03-28T22:51:03.697Z,100665.48
2018-03-28T22:53:31.297Z,100663.39
2018-03-28T22:55:58.981Z,100663.48
2018-03-28T22:58:27.691Z,100661.81
2018-03-28T23:00:55.943Z,100665.48
2018-03-28T23:03:23.582Z,100662.50
2018-03-28T23:05:51.212Z,100661.85
2018-03-28T23:08:19.745Z,100663.79
2018-03-28T23:10:47.789Z,100661.33
2018-03-28T23:13:15.899Z,100661.44
2018-03-28T23:15:43.721Z,100659.23
2018-03-28T23:18:13.385Z,100662.38
2018-03-28T23:20:41.046Z,100657.49
2018-03-28T23:23:09.049Z,100653.25
2018-03-28T23:25:36.598Z,100653.41
2018-03-28T23:28:04.171Z,100653.93
2018-03-28T23:30:32.250Z,100652.62
2018-03-28T23:32:59.801Z,100650.95
2018-03-28T23:35:27.365Z,100647.50
2018-03-28T23:37:55.065Z,100645.77
2018-03-28T23:40:22.764Z,100648.17
2018-03-28T23:42:50.350Z,100648.23
2018-03-28T23:45:18.046Z,100648.36
2018-03-28T23:47:45.651Z,100648.05
2018-03-28T23:50:14.700Z,100652.02
2018-03-28T23:52:42.516Z,100640.52
2018-03-28T23:55:10.079Z,100646.32
2018-03-28T23:57:38.490Z,100644.33
